ěÝzenÝ letovÚho provozu ╚eskÚ republiky
OPMET data - Ceska Republika Aktualizace: 19.01.2021 13:59:26  UTC
SIGMET / AIRMET - NIL
Warning / Vystraha
LKKV AD WRNG 3 VALID 191213/191405 SN 1CM OBS INTSF=
LKPR AD WRNG 3 VALID 191400/191635 SN 3CM FCST NC=
AIREP - NIL
REG QNH
REGIONAL QNH FORECAST ISSUED 2021-01-19 11:43 AREA VALID FM/TL QNH/HPA/ : LKAA 191200/191500 1006 =
 
METAR / SPECI
METAR LKBC 191400Z AUTO 17004KT 140V230 9999 OVC110 03/M05 Q1011=
METAR LKCV 191400Z 17008KT CAVOK 02/M03 Q1011 NOSIG RMK BLU BLU=
METAR LKKB 191400Z 21017KT 9999 -SN BKN038 BKN044 03/M03 Q1010 NOSIG RMK BLU BLU=
METAR LKKU 191300Z 22009KT CAVOK 02/M02 Q1015=
METAR LKKV 191330Z 22008KT 180V260 1500 R29/1300U -SN BR SCT003 OVC013 M01/M02 Q1008 R29/591093 RMK REG QNH 1006=
METAR LKLN 191400Z AUTO 21011KT 9999 -SN SCT020 BKN034 OVC058 01/M01 Q1011=
METAR LKMT 191330Z 21011KT 9999 OVC019 02/M01 Q1014 R04/29//95 NOSIG RMK REG QNH 1006=
METAR LKNA 191400Z 18009KT CAVOK 01/M04 Q1012 NOSIG RMK BLU BLU=
METAR LKPD 191400Z 19008KT CAVOK 02/M02 Q1012 TEMPO 5000 RASN BKN020 RMK BLU BLU TEMPO WHT=
METAR LKPJ 191330Z AUTO 20009KT 180V270 9999 SCT075 02/M02 Q1014=
SPECI LKPR 191351Z 20010KT 150V240 9999 -SN FEW025 BKN048 01/M03 Q1010 RMK REG QNH 1006=
SPECI LKTB 191331Z 21007KT 9999 VCSH NSC 03/M02 Q1014 R27/21//95 RMK REG QNH 1006=
SPECI LKVO 191341Z 22012KT 9999 -SN FEW029 BKN039 03/M02 Q1010=
TAF
TAF LKBC NIL
TAF LKCV 191100Z 1912/2012 23012KT 9999 SCT020 BKN035      BECMG 1912/1914 7000 RASN BKN020 OVC040      TEMPO 1912/2003 23018KT      TEMPO 1914/2000 3000 RASN BKN010 OVC020      PROB40 1914/1920 23018G28KT 1600 SN OVC005      BECMG 2004/2007 21007KT CAVOK=
TAF LKKB 191100Z 1912/2012 22016KT 9999 BKN035      BECMG 1912/1915 BKN020      TEMPO 1912/2010 23016G26KT      PROB30 TEMPO 1913/2006 24020G30KT      TEMPO 1914/1922 3000 RASN BR BKN008 OVC015      BECMG 2003/2006 CAVOK=
TAF LKKU NIL
TAF LKKV 191100Z 1912/2018 23008KT 9999 BKN015      TEMPO 1912/2006 26016G28KT      TEMPO 1912/2000 -SN BKN006      PROB30 TEMPO 1914/1919 27022G40KT 1500 SN OVC003      BECMG 2000/2002 CAVOK      BECMG 2012/2015 VRB02KT=
TAF LKLN NIL
TAF LKMT 191100Z 1912/2018 22014KT 9999 BKN025      TEMPO 1912/2018 24016G28KT      TEMPO 1912/2008 -SN BKN012      PROB30 TEMPO 1919/2003 23020G36KT 3000 SN OVC005      BECMG 2008/2011 CAVOK=
TAF LKNA 191100Z 1912/2012 23008KT 9999 BKN020      TEMPO 1912/1914 23012KT SCT040      TEMPO 1916/2003 3000 SN BKN007      PROB30 TEMPO 1917/2003 5000 SNRA BR BKN015      BECMG 2005/2007 BKN040      PROB30 2007/2012 CAVOK=
TAF COR LKPD 191100Z 1912/2012 24010KT 9999 SCT025      BECMG 1914/1917 7000 RASN BKN025 OVC040      TEMPO 1915/1921 22014KT 4000 SNRA BKN014      PROB30 TEMPO 1915/1918 2000 SN BKN010      BECMG 1921/2000 9999 NSW SCT040      BECMG 2007/2009 08004KT=
TAF LKPJ NIL
TAF LKPR 191100Z 1912/2018 21016KT 9999 BKN022      TEMPO 1912/2005 24018G28KT -SNRA BKN012      PROB30 TEMPO 1915/1919 3000 SN OVC005      PROB30 TEMPO 1916/2003 24024G40KT      BECMG 2006/2008 CAVOK=
TAF LKTB 191100Z 1912/2018 18006KT 9999 BKN030      TEMPO 1912/2003 24012KT -SNRA BKN017      PROB30 TEMPO 1918/1923 2500 SN OVC007      BECMG 2004/2006 VRB02KT 2500 BR BKN006      TEMPO 2006/2018 1200 BR OVC004      PROB30 TEMPO 2006/2012 0500 FZFG OVC002=
TAF LKVO NIL